createdAt,value
2019-02-22T00:01:54.860Z,100752.17
2019-02-22T00:04:25.698Z,100752.20
2019-02-22T00:06:56.683Z,100754.52
2019-02-22T00:09:27.488Z,100751.67
2019-02-22T00:11:58.364Z,100750.63
2019-02-22T00:14:29.495Z,100751.12
2019-02-22T00:17:00.551Z,100758.18
2019-02-22T00:19:31.423Z,100769.44
2019-02-22T00:22:02.339Z,100768.20
2019-02-22T00:24:33.226Z,100766.54
2019-02-22T00:27:04.158Z,100765.72
2019-02-22T00:29:35.036Z,100768.76
2019-02-22T00:32:05.941Z,100763.89
2019-02-22T00:34:36.996Z,100764.22
2019-02-22T00:37:07.915Z,100768.78
2019-02-22T00:39:38.792Z,100768.16
2019-02-22T00:42:09.615Z,100762.99
2019-02-22T00:44:40.410Z,100767.86
2019-02-22T00:47:11.320Z,100774.72
2019-02-22T00:49:42.196Z,100774.66
2019-02-22T00:52:13.771Z,100780.34
2019-02-22T00:54:44.676Z,100785.38
2019-02-22T00:57:15.681Z,100781.36
2019-02-22T00:59:46.507Z,100779.91
2019-02-22T01:02:17.294Z,100779.42
2019-02-22T01:04:48.577Z,100778.11
2019-02-22T01:07:19.383Z,100776.46
2019-02-22T01:09:50.259Z,100782.25
2019-02-22T01:12:21.249Z,100789.30
2019-02-22T01:14:52.126Z,100789.64
2019-02-22T01:17:23.022Z,100798.19
2019-02-22T01:19:53.818Z,100785.80
2019-02-22T01:22:24.811Z,100783.07
2019-02-22T01:24:55.797Z,100792.56
2019-02-22T01:27:26.573Z,100798.26
2019-02-22T01:29:57.970Z,100796.78
2019-02-22T01:32:28.874Z,100785.20
2019-02-22T01:34:59.789Z,100786.59
2019-02-22T01:37:30.792Z,100790.92
2019-02-22T01:40:01.708Z,100789.58
2019-02-22T01:42:33.633Z,100791.56
2019-02-22T01:45:04.645Z,100792.26
2019-02-22T01:47:35.429Z,100788.91
2019-02-22T01:50:06.413Z,100793.91
2019-02-22T01:52:37.251Z,100798.94
2019-02-22T01:55:08.121Z,100802.96
2019-02-22T01:57:39.448Z,100796.75
2019-02-22T02:00:11.428Z,100794.56
2019-02-22T02:02:43.028Z,100790.89
2019-02-22T02:05:13.974Z,100795.95
2019-02-22T02:07:44.983Z,100791.94
2019-02-22T02:10:16.075Z,100790.59
2019-02-22T02:12:46.845Z,100798.80
2019-02-22T02:15:17.768Z,100800.58
2019-02-22T02:17:48.518Z,100794.75
2019-02-22T02:20:19.480Z,100804.84
2019-02-22T02:22:51.483Z,100809.38
2019-02-22T02:25:22.266Z,100799.23
2019-02-22T02:27:53.347Z,100802.30
2019-02-22T02:30:24.155Z,100792.23
2019-02-22T02:32:55.211Z,100796.94
2019-02-22T02:35:26.112Z,100782.34
2019-02-22T02:37:57.406Z,100780.63
2019-02-22T02:40:28.411Z,100781.80
2019-02-22T02:42:59.303Z,100776.11
2019-02-22T02:45:30.072Z,100781.47
2019-02-22T02:48:00.972Z,100781.64
2019-02-22T02:50:31.847Z,100781.28
2019-02-22T02:53:02.769Z,100774.94
2019-02-22T02:55:35.063Z,100769.41
2019-02-22T02:58:06.043Z,100774.11
2019-02-22T03:00:37.207Z,100781.14
2019-02-22T03:03:08.046Z,100787.70
2019-02-22T03:05:57.857Z,100790.57
2019-02-22T03:08:32.483Z,100781.84
2019-02-22T03:11:03.232Z,100774.30
2019-02-22T03:13:34.198Z,100776.86
2019-02-22T03:16:05.330Z,100780.25
2019-02-22T03:18:36.146Z,100777.08
2019-02-22T03:21:07.133Z,100781.42
2019-02-22T03:23:38.027Z,100780.57
2019-02-22T03:26:09.192Z,100775.71
2019-02-22T03:28:40.095Z,100772.86
2019-02-22T03:31:11.342Z,100772.54
2019-02-22T03:33:42.296Z,100774.67
2019-02-22T03:36:13.089Z,100774.18
2019-02-22T03:38:43.851Z,100775.87
2019-02-22T03:41:14.751Z,100776.53
2019-02-22T03:43:45.625Z,100783.05
2019-02-22T03:46:16.539Z,100784.50
2019-02-22T03:48:47.514Z,100777.48
2019-02-22T03:51:18.379Z,100772.97
2019-02-22T03:54:02.860Z,100779.47
2019-02-22T03:56:34.352Z,100781.00
2019-02-22T03:59:05.666Z,100791.17
2019-02-22T04:01:36.630Z,100788.52
2019-02-22T04:04:07.508Z,100787.18
2019-02-22T04:06:39.500Z,100789.19
2019-02-22T04:09:13.443Z,100799.67
2019-02-22T04:11:45.979Z,100791.97
2019-02-22T04:14:16.878Z,100790.41
2019-02-22T04:16:47.848Z,100795.41
2019-02-22T04:19:18.642Z,100804.78
2019-02-22T04:21:49.824Z,100804.30
2019-02-22T04:24:20.611Z,100812.46
2019-02-22T04:26:51.440Z,100807.81
2019-02-22T04:29:22.454Z,100811.10
2019-02-22T04:31:53.418Z,100814.95
2019-02-22T04:34:24.255Z,100822.55
2019-02-22T04:36:55.244Z,100825.42
2019-02-22T04:39:26.038Z,100826.76
2019-02-22T04:41:58.295Z,100826.56
2019-02-22T04:44:29.350Z,100830.57
2019-02-22T04:47:00.209Z,100830.45
2019-02-22T04:49:31.086Z,100831.10
2019-02-22T04:52:01.874Z,100825.09
2019-02-22T04:54:32.773Z,100829.77
2019-02-22T04:57:03.743Z,100819.58
2019-02-22T04:59:34.681Z,100817.88
2019-02-22T05:02:05.628Z,100821.86
2019-02-22T05:04:36.807Z,100823.52
2019-02-22T05:07:07.600Z,100816.01
2019-02-22T05:09:38.655Z,100820.72
2019-02-22T05:12:11.192Z,100818.56
2019-02-22T05:14:42.215Z,100820.42
2019-02-22T05:17:13.807Z,100825.78
2019-02-22T05:19:44.692Z,100826.76
2019-02-22T05:22:15.480Z,100826.92
2019-02-22T05:24:46.459Z,100832.56
2019-02-22T05:27:17.294Z,100834.55
2019-02-22T05:29:48.544Z,100846.68
2019-02-22T05:32:19.334Z,100842.48
2019-02-22T05:34:51.260Z,100841.81
2019-02-22T05:37:22.044Z,100845.98
2019-02-22T05:39:52.945Z,100856.09
2019-02-22T05:42:23.821Z,100860.84
2019-02-22T05:44:54.657Z,100857.74
2019-02-22T05:47:25.431Z,100859.14
2019-02-22T05:49:56.331Z,100853.70
2019-02-22T05:52:27.197Z,100859.94
2019-02-22T05:54:57.995Z,100851.86
2019-02-22T05:57:29.059Z,100857.80
2019-02-22T06:00:02.293Z,100857.05
2019-02-22T06:02:34.094Z,100869.78
2019-02-22T06:05:05.140Z,100879.19
2019-02-22T06:07:36.604Z,100881.82
2019-02-22T06:10:07.627Z,100881.75
2019-02-22T06:12:38.807Z,100876.45
2019-02-22T06:15:09.688Z,100878.47
2019-02-22T06:17:40.684Z,100878.84
2019-02-22T06:20:11.696Z,100878.03
2019-02-22T06:22:42.573Z,100885.30
2019-02-22T06:25:13.355Z,100894.03
2019-02-22T06:27:44.232Z,100896.06
2019-02-22T06:30:15.121Z,100900.31
2019-02-22T06:32:46.165Z,100891.80
2019-02-22T06:35:17.118Z,100893.46
2019-02-22T06:37:48.170Z,100898.01
2019-02-22T06:40:18.984Z,100896.88
2019-02-22T06:42:50.915Z,100897.88
2019-02-22T06:45:21.892Z,100895.20
2019-02-22T06:47:52.869Z,100897.56
2019-02-22T06:50:33.332Z,100900.56
2019-02-22T06:52:56.175Z,100901.81
2019-02-22T06:55:26.981Z,100900.52
2019-02-22T06:57:57.856Z,100896.55
2019-02-22T07:00:28.756Z,100901.74
2019-02-22T07:02:59.633Z,100903.31
2019-02-22T07:05:30.609Z,100906.69
2019-02-22T07:08:01.624Z,100909.08
2019-02-22T07:10:51.375Z,100908.03
2019-02-22T07:13:24.406Z,100908.78
2019-02-22T07:15:55.051Z,100907.80
2019-02-22T07:18:25.859Z,100910.33
2019-02-22T07:20:56.743Z,100919.70
2019-02-22T07:23:27.737Z,100924.38
2019-02-22T07:25:58.620Z,100918.85
2019-02-22T07:28:29.487Z,100923.56
2019-02-22T07:31:00.294Z,100923.10
2019-02-22T07:33:31.161Z,100930.03
2019-02-22T07:36:02.048Z,100929.73
2019-02-22T07:38:33.153Z,100932.51
2019-02-22T07:41:04.053Z,100932.48
2019-02-22T07:43:34.938Z,100936.89
2019-02-22T07:46:05.861Z,100938.44
2019-02-22T07:48:36.696Z,100936.33
2019-02-22T07:51:07.483Z,100942.73
2019-02-22T07:53:38.442Z,100956.50
2019-02-22T07:56:09.273Z,100949.98
2019-02-22T07:58:40.447Z,100956.55
2019-02-22T08:01:11.340Z,100964.78
2019-02-22T08:03:42.240Z,100967.96
2019-02-22T08:06:13.017Z,100963.28
2019-02-22T08:08:43.973Z,100964.92
2019-02-22T08:11:14.805Z,100966.48
2019-02-22T08:13:46.183Z,100972.25
2019-02-22T08:16:16.972Z,100985.80
2019-02-22T08:18:47.879Z,100986.34
2019-02-22T08:21:18.656Z,100990.81
2019-02-22T08:23:49.546Z,100982.08
2019-02-22T08:26:20.432Z,100988.80
2019-02-22T08:28:51.480Z,100984.09
2019-02-22T08:31:22.393Z,100983.44
2019-02-22T08:33:53.401Z,100985.16
2019-02-22T08:36:24.188Z,100981.86
2019-02-22T08:38:55.077Z,100986.89
2019-02-22T08:41:25.860Z,100980.25
2019-02-22T08:43:56.746Z,100988.00
2019-02-22T08:46:27.525Z,100984.66
2019-02-22T08:48:59.186Z,100978.78
2019-02-22T08:51:30.123Z,100980.47
2019-02-22T08:54:01.014Z,100986.19
2019-02-22T08:56:32.820Z,100996.76
2019-02-22T08:59:03.899Z,100988.38
2019-02-22T09:01:35.792Z,100987.03
2019-02-22T09:04:06.792Z,101006.69
2019-02-22T09:06:37.584Z,101008.20
2019-02-22T09:09:08.467Z,101009.87
2019-02-22T09:11:39.783Z,101009.03
2019-02-22T09:14:10.860Z,101007.83
2019-02-22T09:16:41.753Z,101018.23
2019-02-22T09:19:12.795Z,101016.17
2019-02-22T09:21:43.748Z,101019.34
2019-02-22T09:24:15.106Z,101023.70
2019-02-22T09:26:46.018Z,101018.45
2019-02-22T09:29:17.010Z,101028.58
2019-02-22T09:31:48.086Z,101036.15
2019-02-22T09:34:18.983Z,101035.66
2019-02-22T09:36:49.773Z,101032.72
2019-02-22T09:39:21.022Z,101036.67
2019-02-22T09:41:51.972Z,101036.86
2019-02-22T09:44:22.962Z,101034.34
2019-02-22T09:46:53.631Z,101036.86
2019-02-22T09:49:24.527Z,101041.56
2019-02-22T09:51:55.327Z,101047.54
2019-02-22T09:54:26.302Z,101045.99
2019-02-22T09:56:57.177Z,101050.37
2019-02-22T09:59:28.213Z,101054.53
2019-02-22T10:01:59.073Z,101056.70
2019-02-22T10:04:29.994Z,101055.16
2019-02-22T10:07:00.845Z,101040.16
2019-02-22T10:09:32.286Z,101039.31
2019-02-22T10:12:03.347Z,101038.13
2019-02-22T10:14:34.202Z,101027.62
2019-02-22T10:17:05.173Z,101025.89
2019-02-22T10:19:36.450Z,101012.36
2019-02-22T10:22:07.408Z,101012.94
2019-02-22T10:24:38.301Z,101013.30
2019-02-22T10:27:11.938Z,101017.50
2019-02-22T10:29:41.772Z,101021.86
2019-02-22T10:32:12.684Z,101021.71
2019-02-22T10:34:43.581Z,101026.51
2019-02-22T10:37:14.365Z,101031.80
2019-02-22T10:39:45.456Z,101036.52
2019-02-22T10:42:16.227Z,101033.42
2019-02-22T10:44:47.121Z,101041.38
2019-02-22T10:47:18.009Z,101036.63
2019-02-22T10:49:48.893Z,101029.91
2019-02-22T10:52:19.587Z,101035.86
2019-02-22T10:54:51.497Z,101027.84
2019-02-22T10:57:22.373Z,101021.89
2019-02-22T10:59:54.950Z,101026.73
2019-02-22T11:02:25.801Z,101023.63
2019-02-22T11:04:56.860Z,101027.33
2019-02-22T11:07:27.656Z,101038.80
2019-02-22T11:09:58.836Z,101041.20
2019-02-22T11:12:29.770Z,101034.30
2019-02-22T11:15:01.021Z,101034.38
2019-02-22T11:17:32.027Z,101030.25
2019-02-22T11:20:02.946Z,101024.78
2019-02-22T11:22:34.129Z,101016.45
2019-02-22T11:25:05.822Z,101028.27
2019-02-22T11:27:36.721Z,101024.47
2019-02-22T11:30:08.880Z,101028.58
2019-02-22T11:32:39.929Z,101030.23
2019-02-22T11:35:10.819Z,101024.47
2019-02-22T11:37:41.893Z,101022.02
2019-02-22T11:40:13.105Z,101026.75
2019-02-22T11:42:43.881Z,101016.78
2019-02-22T11:45:14.981Z,101016.83
2019-02-22T11:47:45.859Z,101019.86
2019-02-22T11:50:16.798Z,101015.49
2019-02-22T11:52:47.646Z,101010.17
2019-02-22T11:55:19.105Z,101004.27
2019-02-22T11:57:50.101Z,100996.91
2019-02-22T12:00:22.262Z,101007.68
2019-02-22T12:02:53.249Z,101009.58
2019-02-22T12:05:25.041Z,101008.13
2019-02-22T12:07:55.937Z,101012.64
2019-02-22T12:10:27.008Z,101008.31
2019-02-22T12:12:57.901Z,101009.09
2019-02-22T12:15:31.336Z,101006.27
2019-02-22T12:18:01.537Z,101006.64
2019-02-22T12:20:32.429Z,101001.19
2019-02-22T12:23:03.213Z,101004.97
2019-02-22T12:25:34.181Z,101001.74
2019-02-22T12:28:05.072Z,100999.58
2019-02-22T12:30:36.083Z,100994.42
2019-02-22T12:33:06.966Z,100998.83
2019-02-22T12:35:38.585Z,100993.75
2019-02-22T12:38:09.438Z,100994.81
2019-02-22T12:40:40.445Z,100993.05
2019-02-22T12:43:11.221Z,100996.61
2019-02-22T12:45:42.318Z,101001.65
2019-02-22T12:48:13.097Z,101005.67
2019-02-22T12:50:44.017Z,100999.61
2019-02-22T12:53:14.884Z,101007.55
2019-02-22T12:55:45.824Z,101003.71
2019-02-22T12:58:16.700Z,101000.83
2019-02-22T13:00:47.589Z,101005.66
2019-02-22T13:03:18.515Z,101012.57
2019-02-22T13:05:49.261Z,101012.36
2019-02-22T13:08:20.572Z,101020.76
2019-02-22T13:10:51.357Z,101016.20
2019-02-22T13:13:22.245Z,101024.47
2019-02-22T13:15:53.112Z,101009.09
2019-02-22T13:18:24.090Z,101018.88
2019-02-22T13:20:54.893Z,101019.69
2019-02-22T13:23:25.831Z,101012.65
2019-02-22T13:25:56.783Z,101006.52
2019-02-22T13:28:27.676Z,101005.17
2019-02-22T13:30:58.645Z,101001.41
2019-02-22T13:33:29.522Z,101002.25
2019-02-22T13:36:00.380Z,101010.72
2019-02-22T13:38:31.145Z,101011.13
2019-02-22T13:41:02.230Z,101000.02
2019-02-22T13:43:33.136Z,100996.13
2019-02-22T13:46:04.485Z,100987.35
2019-02-22T13:48:35.392Z,100991.41
2019-02-22T13:51:07.289Z,100993.52
2019-02-22T13:53:38.218Z,100995.84
2019-02-22T13:56:09.341Z,100998.55
2019-02-22T13:58:40.203Z,100988.95
2019-02-22T14:01:11.444Z,100988.80
2019-02-22T14:03:42.400Z,100993.03
2019-02-22T14:06:13.408Z,100992.59
2019-02-22T14:08:44.383Z,100990.57
2019-02-22T14:11:16.547Z,100989.66
2019-02-22T14:13:47.518Z,100988.94
2019-02-22T14:16:18.367Z,100988.69
2019-02-22T14:18:49.249Z,100986.95
2019-02-22T14:21:20.285Z,100983.27
2019-02-22T14:23:51.235Z,100983.83
2019-02-22T14:26:22.130Z,100993.88
2019-02-22T14:28:52.905Z,100991.03
2019-02-22T14:31:23.801Z,100990.69
2019-02-22T14:33:54.574Z,100995.09
2019-02-22T14:36:25.542Z,100994.60
2019-02-22T14:38:56.356Z,100987.64
2019-02-22T14:41:28.037Z,100995.03
2019-02-22T14:43:59.162Z,100988.39
2019-02-22T14:46:30.042Z,100987.19
2019-02-22T14:49:00.818Z,100990.15
2019-02-22T14:51:31.674Z,100985.16
2019-02-22T14:54:02.489Z,100992.58
2019-02-22T14:56:33.474Z,100991.89
2019-02-22T14:59:04.385Z,100994.39
2019-02-22T15:01:35.745Z,101002.09
2019-02-22T15:04:06.547Z,101002.24
2019-02-22T15:06:40.334Z,101001.94
2019-02-22T15:09:10.985Z,101004.16
2019-02-22T15:11:42.362Z,101005.52
2019-02-22T15:14:14.214Z,100999.45
2019-02-22T15:17:13.165Z,101001.79
2019-02-22T15:19:44.043Z,101004.64
2019-02-22T15:22:15.020Z,101006.48
2019-02-22T15:24:45.693Z,101007.20
2019-02-22T15:27:16.598Z,101009.26
2019-02-22T15:29:47.392Z,101009.33
2019-02-22T15:32:18.361Z,101009.23
2019-02-22T15:34:49.161Z,101013.88
2019-02-22T15:37:21.142Z,101015.23
2019-02-22T15:39:51.979Z,101016.07
2019-02-22T15:42:22.941Z,101014.81
2019-02-22T15:44:53.528Z,101023.24
2019-02-22T15:47:24.520Z,101022.73
2019-02-22T15:49:55.292Z,101021.01
2019-02-22T15:52:26.181Z,101019.41
2019-02-22T15:54:56.976Z,101018.77
2019-02-22T15:57:28.901Z,101024.69
2019-02-22T15:59:59.789Z,101018.52
2019-02-22T16:02:30.677Z,101023.16
2019-02-22T16:05:09.426Z,101025.35
2019-02-22T16:07:44.806Z,101026.06
2019-02-22T16:10:14.574Z,101022.18
2019-02-22T16:12:45.754Z,101022.72
2019-02-22T16:15:17.981Z,101026.59
2019-02-22T16:17:48.876Z,101022.34
2019-02-22T16:20:19.813Z,101018.44
2019-02-22T16:22:51.639Z,101021.01
2019-02-22T16:25:22.668Z,101015.40
2019-02-22T16:27:53.668Z,101017.81
2019-02-22T16:30:25.891Z,101018.80
2019-02-22T16:32:56.755Z,101009.75
2019-02-22T16:35:27.745Z,101015.30
2019-02-22T16:37:59.350Z,101011.94
2019-02-22T16:40:30.139Z,101015.78
2019-02-22T16:43:01.122Z,101010.11
2019-02-22T16:45:31.936Z,101013.06
2019-02-22T16:48:02.809Z,101021.72
2019-02-22T16:50:33.708Z,101027.08
2019-02-22T16:53:05.362Z,101024.57
2019-02-22T16:55:36.192Z,101017.48
2019-02-22T16:58:07.175Z,101035.05
2019-02-22T17:00:38.068Z,101029.65
2019-02-22T17:03:08.961Z,101028.88
2019-02-22T17:05:40.551Z,101027.37
2019-02-22T17:08:11.565Z,101028.69
2019-02-22T17:10:42.545Z,101031.23
2019-02-22T17:13:14.567Z,101027.53
2019-02-22T17:15:45.344Z,101020.55
2019-02-22T17:18:16.609Z,101021.50
2019-02-22T17:20:47.617Z,101019.65
2019-02-22T17:23:18.758Z,101028.48
2019-02-22T17:25:49.610Z,101033.73
2019-02-22T17:28:20.501Z,101033.13
2019-02-22T17:30:51.372Z,101036.18
2019-02-22T17:33:22.518Z,101033.02
2019-02-22T17:35:53.467Z,101038.28
2019-02-22T17:38:24.352Z,101032.70
2019-02-22T17:40:55.142Z,101034.27
2019-02-22T17:43:26.307Z,101033.08
2019-02-22T17:45:57.109Z,101035.86
2019-02-22T17:48:28.105Z,101035.58
2019-02-22T17:50:58.881Z,101032.59
2019-02-22T17:53:29.682Z,101036.48
2019-02-22T17:56:00.673Z,101037.67
2019-02-22T17:58:33.699Z,101038.42
2019-02-22T18:01:05.331Z,101037.83
2019-02-22T18:03:37.281Z,101038.59
2019-02-22T18:06:08.109Z,101042.67
2019-02-22T18:08:38.992Z,101049.12
2019-02-22T18:11:09.867Z,101048.47
2019-02-22T18:13:41.253Z,101045.84
2019-02-22T18:16:12.069Z,101051.25
2019-02-22T18:18:42.960Z,101055.31
2019-02-22T18:21:13.740Z,101051.64
2019-02-22T18:23:44.656Z,101054.17
2019-02-22T18:26:15.602Z,101056.45
2019-02-22T18:28:46.506Z,101048.88
2019-02-22T18:31:17.294Z,101060.86
2019-02-22T18:33:48.083Z,101053.11
2019-02-22T18:36:18.847Z,101049.25
2019-02-22T18:38:50.788Z,101049.43
2019-02-22T18:41:21.561Z,101047.41
2019-02-22T18:43:52.616Z,101045.75
2019-02-22T18:46:23.422Z,101039.00
2019-02-22T18:48:54.388Z,101038.70
2019-02-22T18:51:25.317Z,101036.23
2019-02-22T18:53:56.189Z,101044.66
2019-02-22T18:56:26.987Z,101041.32
2019-02-22T18:58:58.217Z,101046.84
2019-02-22T19:01:29.064Z,101047.86
2019-02-22T19:03:59.952Z,101048.21
2019-02-22T19:06:30.842Z,101052.75
2019-02-22T19:09:01.734Z,101051.08
2019-02-22T19:11:34.137Z,101052.73
2019-02-22T19:14:05.242Z,101057.94
2019-02-22T19:16:36.121Z,101049.51
2019-02-22T19:19:07.490Z,101058.24
2019-02-22T19:21:38.521Z,101055.14
2019-02-22T19:24:09.489Z,101050.75
2019-02-22T19:26:41.318Z,101048.55
2019-02-22T19:29:12.641Z,101048.36
2019-02-22T19:31:43.514Z,101050.20
2019-02-22T19:34:15.311Z,101048.33
2019-02-22T19:36:46.203Z,101053.95
2019-02-22T19:39:17.095Z,101055.13
2019-02-22T19:41:48.061Z,101058.84
2019-02-22T19:44:18.962Z,101057.63
2019-02-22T19:46:49.841Z,101059.56
2019-02-22T19:49:20.927Z,101059.27
2019-02-22T19:51:51.631Z,101068.03
2019-02-22T19:54:23.067Z,101062.03
2019-02-22T19:56:53.905Z,101067.14
2019-02-22T19:59:24.804Z,101065.29
2019-02-22T20:01:55.793Z,101072.41
2019-02-22T20:04:26.683Z,101066.50
2019-02-22T20:06:59.939Z,101070.58
2019-02-22T20:09:30.235Z,101073.06
2019-02-22T20:12:01.197Z,101067.66
2019-02-22T20:14:32.176Z,101074.23
2019-02-22T20:17:02.961Z,101074.37
2019-02-22T20:19:33.849Z,101073.58
2019-02-22T20:22:04.640Z,101072.11
2019-02-22T20:24:35.500Z,101065.75
2019-02-22T20:27:06.536Z,101073.40
2019-02-22T20:29:37.437Z,101066.36
2019-02-22T20:32:09.464Z,101074.55
2019-02-22T20:34:40.331Z,101066.96
2019-02-22T20:37:11.314Z,101071.16
2019-02-22T20:39:42.213Z,101069.45
2019-02-22T20:42:12.833Z,101068.94
2019-02-22T20:44:43.538Z,101071.26
2019-02-22T20:47:14.652Z,101065.40
2019-02-22T20:49:45.475Z,101064.88
2019-02-22T20:52:16.360Z,101062.48
2019-02-22T20:54:47.350Z,101066.71
2019-02-22T20:57:18.682Z,101075.94
2019-02-22T20:59:49.521Z,101081.90
2019-02-22T21:02:20.677Z,101078.52
2019-02-22T21:04:51.720Z,101085.92
2019-02-22T21:07:22.749Z,101081.66
2019-02-22T21:09:53.636Z,101084.14
2019-02-22T21:12:24.661Z,101085.81
2019-02-22T21:14:55.560Z,101093.63
2019-02-22T21:17:26.646Z,101088.66
2019-02-22T21:19:57.451Z,101085.16
2019-02-22T21:22:28.437Z,101088.45
2019-02-22T21:24:59.221Z,101090.98
2019-02-22T21:27:30.223Z,101092.48
2019-02-22T21:30:00.984Z,101093.12
2019-02-22T21:32:32.174Z,101091.79
2019-02-22T21:35:03.149Z,101095.48
2019-02-22T21:37:34.055Z,101092.31
2019-02-22T21:40:04.938Z,101089.11
2019-02-22T21:42:35.795Z,101094.11
2019-02-22T21:45:07.061Z,101088.13
2019-02-22T21:47:39.418Z,101091.38
2019-02-22T21:50:13.223Z,101091.63
2019-02-22T21:52:44.056Z,101093.08
2019-02-22T21:55:14.947Z,101095.28
2019-02-22T21:57:45.920Z,101096.56
2019-02-22T22:00:18.243Z,101100.75
2019-02-22T22:02:49.551Z,101093.36
2019-02-22T22:05:20.630Z,101098.23
2019-02-22T22:07:51.421Z,101099.58
2019-02-22T22:10:22.341Z,101100.50
2019-02-22T22:12:53.090Z,101103.83
2019-02-22T22:15:24.063Z,101107.03
2019-02-22T22:17:54.875Z,101109.17
2019-02-22T22:20:25.771Z,101096.95
2019-02-22T22:22:56.651Z,101092.78
2019-02-22T22:25:27.534Z,101089.08
2019-02-22T22:27:58.406Z,101099.34
2019-02-22T22:30:29.294Z,101092.69
2019-02-22T22:33:00.085Z,101096.59
2019-02-22T22:35:31.351Z,101100.73
2019-02-22T22:38:02.163Z,101102.92
2019-02-22T22:40:33.147Z,101101.13
2019-02-22T22:43:04.058Z,101098.58
2019-02-22T22:45:35.025Z,101097.07
2019-02-22T22:48:06.030Z,101096.02
2019-02-22T22:50:37.198Z,101093.65
2019-02-22T22:53:07.998Z,101090.81
2019-02-22T22:55:39.455Z,101094.61
2019-02-22T22:58:10.300Z,101087.91
2019-02-22T23:01:13.385Z,101083.69
2019-02-22T23:03:44.527Z,101086.52
2019-02-22T23:06:16.694Z,101090.75
2019-02-22T23:08:47.750Z,101091.23
2019-02-22T23:11:18.946Z,101092.11
2019-02-22T23:13:49.812Z,101083.83
2019-02-22T23:16:20.694Z,101087.04
2019-02-22T23:19:01.352Z,101085.81
2019-02-22T23:21:24.255Z,101076.12
2019-02-22T23:23:55.223Z,101081.92
2019-02-22T23:26:26.216Z,101086.58
2019-02-22T23:28:57.010Z,101087.06
2019-02-22T23:31:27.871Z,101091.44
2019-02-22T23:33:58.657Z,101082.23
2019-02-22T23:36:30.282Z,101081.75
2019-02-22T23:39:01.043Z,101079.07
2019-02-22T23:41:33.570Z,101083.78
2019-02-22T23:44:04.476Z,101085.52
2019-02-22T23:46:35.750Z,101087.97
2019-02-22T23:49:13.137Z,101091.66
2019-02-22T23:51:39.223Z,101091.61
2019-02-22T23:54:09.982Z,101095.78
2019-02-22T23:56:40.847Z,101091.36
2019-02-22T23:59:11.738Z,101094.30
